sensor_id;sensor_type;location;lat;lon;timestamp;P1;durP1;ratioP1;P2;durP2;ratioP2
11092;SDS011;5600;50.864;6.102;2023-03-19T00:00:44;66.57;;;4.57;;
11092;SDS011;5600;50.864;6.102;2023-03-19T00:03:45;52.57;;;4.37;;
11092;SDS011;5600;50.864;6.102;2023-03-19T00:06:46;61.17;;;4.73;;
11092;SDS011;5600;50.864;6.102;2023-03-19T00:09:47;79.97;;;5.37;;
11092;SDS011;5600;50.864;6.102;2023-03-19T00:12:49;77.53;;;4.97;;
11092;SDS011;5600;50.864;6.102;2023-03-19T00:15:50;72.67;;;4.70;;
11092;SDS011;5600;50.864;6.102;2023-03-19T00:18:52;65.27;;;4.37;;
11092;SDS011;5600;50.864;6.102;2023-03-19T00:21:52;62.00;;;4.07;;
11092;SDS011;5600;50.864;6.102;2023-03-19T00:24:54;65.00;;;4.33;;
11092;SDS011;5600;50.864;6.102;2023-03-19T00:27:54;63.97;;;4.37;;
11092;SDS011;5600;50.864;6.102;2023-03-19T00:30:55;94.00;;;5.63;;
11092;SDS011;5600;50.864;6.102;2023-03-19T00:33:56;70.30;;;4.70;;
11092;SDS011;5600;50.864;6.102;2023-03-19T00:36:58;45.93;;;3.87;;
11092;SDS011;5600;50.864;6.102;2023-03-19T00:40:01;56.23;;;3.83;;
11092;SDS011;5600;50.864;6.102;2023-03-19T00:43:03;63.93;;;4.37;;
11092;SDS011;5600;50.864;6.102;2023-03-19T00:46:05;69.70;;;4.73;;
11092;SDS011;5600;50.864;6.102;2023-03-19T00:49:06;60.30;;;5.17;;
11092;SDS011;5600;50.864;6.102;2023-03-19T00:52:07;65.23;;;4.73;;
11092;SDS011;5600;50.864;6.102;2023-03-19T00:55:08;54.03;;;4.23;;
11092;SDS011;5600;50.864;6.102;2023-03-19T00:58:10;71.27;;;5.13;;
11092;SDS011;5600;50.864;6.102;2023-03-19T01:01:11;49.63;;;3.80;;
11092;SDS011;5600;50.864;6.102;2023-03-19T01:04:16;67.17;;;4.93;;
11092;SDS011;5600;50.864;6.102;2023-03-19T01:07:18;61.53;;;4.63;;
11092;SDS011;5600;50.864;6.102;2023-03-19T01:10:20;60.53;;;4.53;;
11092;SDS011;5600;50.864;6.102;2023-03-19T01:13:22;48.80;;;4.20;;
11092;SDS011;5600;50.864;6.102;2023-03-19T01:16:25;53.80;;;4.47;;
11092;SDS011;5600;50.864;6.102;2023-03-19T01:19:27;45.70;;;4.33;;
11092;SDS011;5600;50.864;6.102;2023-03-19T01:22:29;62.10;;;4.90;;
11092;SDS011;5600;50.864;6.102;2023-03-19T01:25:33;71.67;;;5.47;;
11092;SDS011;5600;50.864;6.102;2023-03-19T01:28:36;101.27;;;6.47;;
11092;SDS011;5600;50.864;6.102;2023-03-19T01:31:37;61.63;;;4.83;;
11092;SDS011;5600;50.864;6.102;2023-03-19T01:35:01;66.10;;;5.00;;
11092;SDS011;5600;50.864;6.102;2023-03-19T01:38:02;65.17;;;5.03;;
11092;SDS011;5600;50.864;6.102;2023-03-19T01:41:04;62.40;;;5.63;;
11092;SDS011;5600;50.864;6.102;2023-03-19T01:47:54;64.20;;;5.53;;
11092;SDS011;5600;50.864;6.102;2023-03-19T01:51:00;48.00;;;5.00;;
11092;SDS011;5600;50.864;6.102;2023-03-19T01:54:37;71.73;;;6.47;;
11092;SDS011;5600;50.864;6.102;2023-03-19T01:58:11;60.13;;;5.43;;
11092;SDS011;5600;50.864;6.102;2023-03-19T02:01:32;67.57;;;5.93;;
11092;SDS011;5600;50.864;6.102;2023-03-19T02:04:37;74.13;;;6.53;;
11092;SDS011;5600;50.864;6.102;2023-03-19T02:07:40;49.53;;;5.27;;
11092;SDS011;5600;50.864;6.102;2023-03-19T02:10:44;48.53;;;4.77;;
11092;SDS011;5600;50.864;6.102;2023-03-19T02:13:47;49.10;;;4.57;;
11092;SDS011;5600;50.864;6.102;2023-03-19T02:16:48;42.87;;;4.20;;
11092;SDS011;5600;50.864;6.102;2023-03-19T02:19:56;45.60;;;4.13;;
11092;SDS011;5600;50.864;6.102;2023-03-19T02:26:50;47.50;;;4.40;;
11092;SDS011;5600;50.864;6.102;2023-03-19T02:29:51;50.67;;;4.23;;
11092;SDS011;5600;50.864;6.102;2023-03-19T02:32:54;63.73;;;4.87;;
11092;SDS011;5600;50.864;6.102;2023-03-19T02:35:56;96.13;;;6.40;;
11092;SDS011;5600;50.864;6.102;2023-03-19T02:38:57;58.10;;;4.70;;
11092;SDS011;5600;50.864;6.102;2023-03-19T02:42:04;58.27;;;4.77;;
11092;SDS011;5600;50.864;6.102;2023-03-19T02:45:06;58.13;;;4.73;;
11092;SDS011;5600;50.864;6.102;2023-03-19T02:48:07;54.33;;;4.30;;
11092;SDS011;5600;50.864;6.102;2023-03-19T02:51:08;55.27;;;4.50;;
11092;SDS011;5600;50.864;6.102;2023-03-19T02:54:09;69.10;;;4.97;;
11092;SDS011;5600;50.864;6.102;2023-03-19T02:57:11;55.93;;;4.50;;
11092;SDS011;5600;50.864;6.102;2023-03-19T03:00:12;51.13;;;4.20;;
11092;SDS011;5600;50.864;6.102;2023-03-19T03:03:14;42.00;;;4.00;;
11092;SDS011;5600;50.864;6.102;2023-03-19T03:06:15;53.23;;;4.03;;
11092;SDS011;5600;50.864;6.102;2023-03-19T03:09:17;57.70;;;4.70;;
11092;SDS011;5600;50.864;6.102;2023-03-19T03:12:18;55.60;;;4.40;;
11092;SDS011;5600;50.864;6.102;2023-03-19T03:15:19;50.50;;;3.97;;
11092;SDS011;5600;50.864;6.102;2023-03-19T03:18:21;47.70;;;3.87;;
11092;SDS011;5600;50.864;6.102;2023-03-19T03:21:22;38.93;;;3.47;;
11092;SDS011;5600;50.864;6.102;2023-03-19T03:24:23;48.40;;;4.10;;
11092;SDS011;5600;50.864;6.102;2023-03-19T03:27:23;78.23;;;5.17;;
11092;SDS011;5600;50.864;6.102;2023-03-19T03:30:27;50.53;;;4.20;;
11092;SDS011;5600;50.864;6.102;2023-03-19T03:33:28;41.53;;;3.70;;
11092;SDS011;5600;50.864;6.102;2023-03-19T03:36:29;65.70;;;4.77;;
11092;SDS011;5600;50.864;6.102;2023-03-19T03:39:31;39.47;;;3.57;;
11092;SDS011;5600;50.864;6.102;2023-03-19T03:42:33;66.67;;;4.47;;
11092;SDS011;5600;50.864;6.102;2023-03-19T03:45:36;69.47;;;4.73;;
11092;SDS011;5600;50.864;6.102;2023-03-19T03:48:38;98.73;;;5.87;;
11092;SDS011;5600;50.864;6.102;2023-03-19T03:51:38;59.97;;;4.40;;
11092;SDS011;5600;50.864;6.102;2023-03-19T03:54:41;61.23;;;4.57;;
11092;SDS011;5600;50.864;6.102;2023-03-19T03:57:43;44.37;;;3.60;;
11092;SDS011;5600;50.864;6.102;2023-03-19T04:00:45;75.63;;;5.33;;
11092;SDS011;5600;50.864;6.102;2023-03-19T04:03:47;52.90;;;4.17;;
11092;SDS011;5600;50.864;6.102;2023-03-19T04:06:48;22.77;;;2.57;;
11092;SDS011;5600;50.864;6.102;2023-03-19T04:10:01;48.40;;;3.93;;
11092;SDS011;5600;50.864;6.102;2023-03-19T04:13:03;49.23;;;4.03;;
11092;SDS011;5600;50.864;6.102;2023-03-19T04:16:09;76.07;;;5.37;;
11092;SDS011;5600;50.864;6.102;2023-03-19T04:19:11;61.37;;;4.43;;
11092;SDS011;5600;50.864;6.102;2023-03-19T04:22:11;59.83;;;4.30;;
11092;SDS011;5600;50.864;6.102;2023-03-19T04:25:13;57.53;;;4.37;;
11092;SDS011;5600;50.864;6.102;2023-03-19T04:28:14;50.13;;;4.30;;
11092;SDS011;5600;50.864;6.102;2023-03-19T04:31:16;45.33;;;4.10;;
11092;SDS011;5600;50.864;6.102;2023-03-19T04:34:18;47.20;;;4.03;;
11092;SDS011;5600;50.864;6.102;2023-03-19T04:37:19;43.20;;;3.70;;
11092;SDS011;5600;50.864;6.102;2023-03-19T04:40:23;59.33;;;4.47;;
11092;SDS011;5600;50.864;6.102;2023-03-19T04:43:25;61.17;;;4.80;;
11092;SDS011;5600;50.864;6.102;2023-03-19T04:46:26;56.13;;;4.53;;
11092;SDS011;5600;50.864;6.102;2023-03-19T04:49:28;50.17;;;4.27;;
11092;SDS011;5600;50.864;6.102;2023-03-19T04:52:30;60.10;;;4.70;;
11092;SDS011;5600;50.864;6.102;2023-03-19T04:55:33;45.00;;;3.97;;
11092;SDS011;5600;50.864;6.102;2023-03-19T04:58:49;48.10;;;4.40;;
11092;SDS011;5600;50.864;6.102;2023-03-19T05:01:50;46.33;;;4.40;;
11092;SDS011;5600;50.864;6.102;2023-03-19T05:04:55;63.10;;;5.27;;
11092;SDS011;5600;50.864;6.102;2023-03-19T05:07:57;46.67;;;4.27;;
11092;SDS011;5600;50.864;6.102;2023-03-19T05:10:59;60.83;;;4.97;;
11092;SDS011;5600;50.864;6.102;2023-03-19T05:14:06;60.17;;;5.23;;
11092;SDS011;5600;50.864;6.102;2023-03-19T05:17:20;59.77;;;5.27;;
11092;SDS011;5600;50.864;6.102;2023-03-19T05:20:38;62.07;;;5.27;;
11092;SDS011;5600;50.864;6.102;2023-03-19T05:23:48;52.10;;;4.53;;
11092;SDS011;5600;50.864;6.102;2023-03-19T05:26:53;30.03;;;3.93;;
11092;SDS011;5600;50.864;6.102;2023-03-19T05:30:09;45.50;;;4.40;;
11092;SDS011;5600;50.864;6.102;2023-03-19T05:33:11;39.03;;;4.47;;
11092;SDS011;5600;50.864;6.102;2023-03-19T05:36:15;65.33;;;5.70;;
11092;SDS011;5600;50.864;6.102;2023-03-19T05:39:37;42.93;;;4.33;;
11092;SDS011;5600;50.864;6.102;2023-03-19T05:42:41;50.40;;;4.93;;
11092;SDS011;5600;50.864;6.102;2023-03-19T05:45:48;42.83;;;4.50;;
11092;SDS011;5600;50.864;6.102;2023-03-19T05:48:54;44.07;;;4.53;;
11092;SDS011;5600;50.864;6.102;2023-03-19T05:51:56;47.73;;;4.93;;
11092;SDS011;5600;50.864;6.102;2023-03-19T05:54:59;62.30;;;5.50;;
11092;SDS011;5600;50.864;6.102;2023-03-19T05:58:20;69.43;;;5.87;;
11092;SDS011;5600;50.864;6.102;2023-03-19T06:01:22;60.83;;;5.27;;
11092;SDS011;5600;50.864;6.102;2023-03-19T06:04:23;55.47;;;4.93;;
11092;SDS011;5600;50.864;6.102;2023-03-19T06:07:25;46.30;;;4.60;;
11092;SDS011;5600;50.864;6.102;2023-03-19T06:10:26;58.53;;;5.37;;
11092;SDS011;5600;50.864;6.102;2023-03-19T06:13:29;58.27;;;5.43;;
11092;SDS011;5600;50.864;6.102;2023-03-19T06:16:32;43.80;;;4.43;;
11092;SDS011;5600;50.864;6.102;2023-03-19T06:19:36;47.17;;;4.67;;
11092;SDS011;5600;50.864;6.102;2023-03-19T06:22:37;48.70;;;5.03;;
11092;SDS011;5600;50.864;6.102;2023-03-19T06:25:39;65.63;;;5.63;;
11092;SDS011;5600;50.864;6.102;2023-03-19T06:28:40;86.73;;;6.40;;
11092;SDS011;5600;50.864;6.102;2023-03-19T06:31:41;49.27;;;4.63;;
11092;SDS011;5600;50.864;6.102;2023-03-19T06:34:53;45.03;;;4.50;;
11092;SDS011;5600;50.864;6.102;2023-03-19T06:37:55;66.27;;;5.30;;
11092;SDS011;5600;50.864;6.102;2023-03-19T06:40:56;45.93;;;4.50;;
11092;SDS011;5600;50.864;6.102;2023-03-19T06:43:57;32.67;;;3.70;;
11092;SDS011;5600;50.864;6.102;2023-03-19T06:46:59;56.83;;;5.43;;
11092;SDS011;5600;50.864;6.102;2023-03-19T06:50:02;42.80;;;4.37;;
11092;SDS011;5600;50.864;6.102;2023-03-19T06:53:04;40.73;;;4.23;;
11092;SDS011;5600;50.864;6.102;2023-03-19T06:56:05;53.17;;;4.70;;
11092;SDS011;5600;50.864;6.102;2023-03-19T06:59:06;50.77;;;4.63;;
11092;SDS011;5600;50.864;6.102;2023-03-19T07:02:08;49.13;;;4.73;;
11092;SDS011;5600;50.864;6.102;2023-03-19T07:05:10;48.47;;;4.53;;
11092;SDS011;5600;50.864;6.102;2023-03-19T07:08:11;50.17;;;4.67;;
11092;SDS011;5600;50.864;6.102;2023-03-19T07:11:12;77.37;;;6.10;;
11092;SDS011;5600;50.864;6.102;2023-03-19T07:14:14;67.07;;;5.47;;
11092;SDS011;5600;50.864;6.102;2023-03-19T07:17:16;55.07;;;4.83;;
11092;SDS011;5600;50.864;6.102;2023-03-19T07:20:16;60.17;;;5.30;;
11092;SDS011;5600;50.864;6.102;2023-03-19T07:23:17;55.07;;;5.33;;
11092;SDS011;5600;50.864;6.102;2023-03-19T07:26:19;68.03;;;5.50;;
11092;SDS011;5600;50.864;6.102;2023-03-19T07:29:20;72.70;;;5.67;;
11092;SDS011;5600;50.864;6.102;2023-03-19T07:32:21;64.30;;;5.77;;
11092;SDS011;5600;50.864;6.102;2023-03-19T07:35:22;51.07;;;5.17;;
11092;SDS011;5600;50.864;6.102;2023-03-19T07:38:23;72.13;;;5.80;;
11092;SDS011;5600;50.864;6.102;2023-03-19T07:41:23;54.50;;;5.17;;
11092;SDS011;5600;50.864;6.102;2023-03-19T07:44:25;54.03;;;5.17;;
11092;SDS011;5600;50.864;6.102;2023-03-19T07:47:26;60.43;;;5.50;;
11092;SDS011;5600;50.864;6.102;2023-03-19T07:50:26;44.30;;;4.73;;
11092;SDS011;5600;50.864;6.102;2023-03-19T07:53:28;31.60;;;4.03;;
11092;SDS011;5600;50.864;6.102;2023-03-19T07:56:29;54.90;;;5.37;;
11092;SDS011;5600;50.864;6.102;2023-03-19T07:59:30;39.90;;;4.37;;
11092;SDS011;5600;50.864;6.102;2023-03-19T08:02:31;42.87;;;4.37;;
11092;SDS011;5600;50.864;6.102;2023-03-19T08:05:31;47.00;;;4.60;;
11092;SDS011;5600;50.864;6.102;2023-03-19T08:08:32;70.47;;;5.70;;
11092;SDS011;5600;50.864;6.102;2023-03-19T08:11:34;79.30;;;6.13;;
11092;SDS011;5600;50.864;6.102;2023-03-19T08:14:36;48.77;;;4.53;;
11092;SDS011;5600;50.864;6.102;2023-03-19T08:17:36;27.30;;;3.60;;
11092;SDS011;5600;50.864;6.102;2023-03-19T08:20:38;67.70;;;5.68;;
11092;SDS011;5600;50.864;6.102;2023-03-19T08:23:38;48.95;;;5.03;;
11092;SDS011;5600;50.864;6.102;2023-03-19T08:26:39;48.75;;;4.70;;
11092;SDS011;5600;50.864;6.102;2023-03-19T08:29:40;61.80;;;5.60;;
11092;SDS011;5600;50.864;6.102;2023-03-19T08:32:41;47.17;;;4.80;;
11092;SDS011;5600;50.864;6.102;2023-03-19T08:35:43;79.57;;;6.18;;
11092;SDS011;5600;50.864;6.102;2023-03-19T08:38:44;76.93;;;6.27;;
11092;SDS011;5600;50.864;6.102;2023-03-19T08:41:45;51.73;;;5.20;;
11092;SDS011;5600;50.864;6.102;2023-03-19T08:44:47;61.30;;;5.80;;
11092;SDS011;5600;50.864;6.102;2023-03-19T08:47:49;48.60;;;5.03;;
11092;SDS011;5600;50.864;6.102;2023-03-19T08:50:57;48.57;;;4.90;;
11092;SDS011;5600;50.864;6.102;2023-03-19T08:54:01;38.00;;;4.53;;
11092;SDS011;5600;50.864;6.102;2023-03-19T08:57:02;52.70;;;5.00;;
11092;SDS011;5600;50.864;6.102;2023-03-19T09:00:03;45.87;;;5.27;;
11092;SDS011;5600;50.864;6.102;2023-03-19T09:03:05;72.40;;;6.03;;
11092;SDS011;5600;50.864;6.102;2023-03-19T09:06:07;47.70;;;4.88;;
11092;SDS011;5600;50.864;6.102;2023-03-19T09:09:10;72.80;;;5.95;;
11092;SDS011;5600;50.864;6.102;2023-03-19T09:12:13;68.68;;;5.80;;
11092;SDS011;5600;50.864;6.102;2023-03-19T09:15:15;64.93;;;5.35;;
11092;SDS011;5600;50.864;6.102;2023-03-19T09:18:17;60.30;;;5.20;;
11092;SDS011;5600;50.864;6.102;2023-03-19T09:21:19;60.95;;;5.03;;
11092;SDS011;5600;50.864;6.102;2023-03-19T09:24:20;63.97;;;5.32;;
11092;SDS011;5600;50.864;6.102;2023-03-19T09:27:22;75.18;;;5.70;;
11092;SDS011;5600;50.864;6.102;2023-03-19T09:30:23;73.10;;;5.57;;
11092;SDS011;5600;50.864;6.102;2023-03-19T09:33:24;75.85;;;5.85;;
11092;SDS011;5600;50.864;6.102;2023-03-19T09:36:25;68.85;;;5.50;;
11092;SDS011;5600;50.864;6.102;2023-03-19T09:39:26;57.45;;;4.97;;
11092;SDS011;5600;50.864;6.102;2023-03-19T09:42:37;66.38;;;5.05;;
11092;SDS011;5600;50.864;6.102;2023-03-19T09:45:45;39.45;;;4.07;;
11092;SDS011;5600;50.864;6.102;2023-03-19T09:48:48;68.53;;;4.82;;
11092;SDS011;5600;50.864;6.102;2023-03-19T09:55:44;66.83;;;5.00;;
11092;SDS011;5600;50.864;6.102;2023-03-19T09:58:48;74.63;;;5.37;;
11092;SDS011;5600;50.864;6.102;2023-03-19T10:01:56;39.85;;;3.47;;
11092;SDS011;5600;50.864;6.102;2023-03-19T10:15:14;52.08;;;4.43;;
11092;SDS011;5600;50.864;6.102;2023-03-19T10:18:32;59.63;;;4.83;;
11092;SDS011;5600;50.864;6.102;2023-03-19T10:24:39;60.50;;;4.50;;
11092;SDS011;5600;50.864;6.102;2023-03-19T10:27:44;60.00;;;4.23;;
11092;SDS011;5600;50.864;6.102;2023-03-19T10:31:06;46.07;;;3.80;;
11092;SDS011;5600;50.864;6.102;2023-03-19T10:34:22;47.87;;;3.53;;
11092;SDS011;5600;50.864;6.102;2023-03-19T10:37:30;52.30;;;4.13;;
11092;SDS011;5600;50.864;6.102;2023-03-19T10:40:35;60.23;;;4.40;;
11092;SDS011;5600;50.864;6.102;2023-03-19T10:43:46;49.60;;;4.10;;
11092;SDS011;5600;50.864;6.102;2023-03-19T10:47:08;45.93;;;3.57;;
11092;SDS011;5600;50.864;6.102;2023-03-19T10:50:18;53.47;;;4.37;;
11092;SDS011;5600;50.864;6.102;2023-03-19T10:53:27;58.80;;;4.70;;
11092;SDS011;5600;50.864;6.102;2023-03-19T10:56:33;62.55;;;4.63;;
11092;SDS011;5600;50.864;6.102;2023-03-19T10:59:37;79.20;;;5.45;;
11092;SDS011;5600;50.864;6.102;2023-03-19T11:02:37;69.83;;;5.00;;
11092;SDS011;5600;50.864;6.102;2023-03-19T11:05:49;53.33;;;4.30;;
11092;SDS011;5600;50.864;6.102;2023-03-19T11:12:33;53.20;;;4.00;;
11092;SDS011;5600;50.864;6.102;2023-03-19T11:15:36;55.22;;;4.28;;
11092;SDS011;5600;50.864;6.102;2023-03-19T11:18:38;73.25;;;4.65;;
11092;SDS011;5600;50.864;6.102;2023-03-19T11:21:39;51.58;;;3.60;;
11092;SDS011;5600;50.864;6.102;2023-03-19T11:24:41;52.83;;;3.70;;
11092;SDS011;5600;50.864;6.102;2023-03-19T11:28:11;57.78;;;3.92;;
11092;SDS011;5600;50.864;6.102;2023-03-19T11:40:58;54.20;;;4.00;;
11092;SDS011;5600;50.864;6.102;2023-03-19T11:47:35;69.20;;;4.45;;
11092;SDS011;5600;50.864;6.102;2023-03-19T11:51:24;34.33;;;2.90;;
11092;SDS011;5600;50.864;6.102;2023-03-19T11:54:21;52.88;;;3.78;;
11092;SDS011;5600;50.864;6.102;2023-03-19T12:00:56;61.40;;;4.10;;
11092;SDS011;5600;50.864;6.102;2023-03-19T12:14:02;35.63;;;3.38;;
11092;SDS011;5600;50.864;6.102;2023-03-19T12:20:21;49.85;;;3.95;;
11092;SDS011;5600;50.864;6.102;2023-03-19T12:23:35;65.10;;;4.53;;
11092;SDS011;5600;50.864;6.102;2023-03-19T12:27:00;51.15;;;4.50;;
11092;SDS011;5600;50.864;6.102;2023-03-19T12:33:25;50.85;;;3.72;;
11092;SDS011;5600;50.864;6.102;2023-03-19T12:43:20;63.35;;;4.32;;
11092;SDS011;5600;50.864;6.102;2023-03-19T12:49:39;70.20;;;4.15;;
11092;SDS011;5600;50.864;6.102;2023-03-19T12:52:54;47.05;;;3.10;;
11092;SDS011;5600;50.864;6.102;2023-03-19T12:55:59;47.05;;;3.40;;
11092;SDS011;5600;50.864;6.102;2023-03-19T12:59:28;46.05;;;4.75;;
11092;SDS011;5600;50.864;6.102;2023-03-19T13:02:41;53.10;;;4.25;;
11092;SDS011;5600;50.864;6.102;2023-03-19T13:12:13;38.17;;;2.47;;
11092;SDS011;5600;50.864;6.102;2023-03-19T13:18:37;50.15;;;3.15;;
11092;SDS011;5600;50.864;6.102;2023-03-19T13:21:48;46.05;;;2.72;;
11092;SDS011;5600;50.864;6.102;2023-03-19T13:24:52;44.38;;;2.92;;
11092;SDS011;5600;50.864;6.102;2023-03-19T13:27:54;43.70;;;2.92;;
11092;SDS011;5600;50.864;6.102;2023-03-19T13:30:59;48.33;;;2.92;;
11092;SDS011;5600;50.864;6.102;2023-03-19T13:37:18;52.03;;;3.75;;
11092;SDS011;5600;50.864;6.102;2023-03-19T13:43:39;64.82;;;3.58;;
11092;SDS011;5600;50.864;6.102;2023-03-19T13:46:42;41.97;;;2.83;;
11092;SDS011;5600;50.864;6.102;2023-03-19T13:53:16;44.10;;;3.33;;
11092;SDS011;5600;50.864;6.102;2023-03-19T13:56:28;73.88;;;4.75;;
11092;SDS011;5600;50.864;6.102;2023-03-19T13:59:33;52.88;;;3.80;;
11092;SDS011;5600;50.864;6.102;2023-03-19T14:05:39;57.13;;;4.00;;
11092;SDS011;5600;50.864;6.102;2023-03-19T14:08:43;73.00;;;4.63;;
11092;SDS011;5600;50.864;6.102;2023-03-19T14:11:50;45.65;;;3.42;;
11092;SDS011;5600;50.864;6.102;2023-03-19T14:14:55;54.72;;;3.92;;
11092;SDS011;5600;50.864;6.102;2023-03-19T14:18:01;47.55;;;3.47;;
11092;SDS011;5600;50.864;6.102;2023-03-19T14:21:05;68.32;;;4.55;;
11092;SDS011;5600;50.864;6.102;2023-03-19T14:27:30;58.33;;;4.30;;
11092;SDS011;5600;50.864;6.102;2023-03-19T14:30:33;49.08;;;3.78;;
11092;SDS011;5600;50.864;6.102;2023-03-19T14:33:51;56.33;;;4.22;;
11092;SDS011;5600;50.864;6.102;2023-03-19T14:40:21;61.33;;;3.93;;
11092;SDS011;5600;50.864;6.102;2023-03-19T14:47:12;44.70;;;3.03;;
11092;SDS011;5600;50.864;6.102;2023-03-19T14:53:54;46.58;;;3.15;;
11092;SDS011;5600;50.864;6.102;2023-03-19T14:57:06;55.90;;;3.65;;
11092;SDS011;5600;50.864;6.102;2023-03-19T15:00:26;43.50;;;2.90;;
11092;SDS011;5600;50.864;6.102;2023-03-19T15:03:32;48.47;;;3.43;;
11092;SDS011;5600;50.864;6.102;2023-03-19T15:06:39;41.17;;;3.03;;
11092;SDS011;5600;50.864;6.102;2023-03-19T15:09:41;46.40;;;3.23;;
11092;SDS011;5600;50.864;6.102;2023-03-19T15:19:28;36.00;;;2.80;;
11092;SDS011;5600;50.864;6.102;2023-03-19T15:22:32;68.23;;;4.20;;
11092;SDS011;5600;50.864;6.102;2023-03-19T15:25:33;77.03;;;4.73;;
11092;SDS011;5600;50.864;6.102;2023-03-19T15:28:45;67.03;;;4.27;;
11092;SDS011;5600;50.864;6.102;2023-03-19T15:31:48;54.57;;;3.73;;
11092;SDS011;5600;50.864;6.102;2023-03-19T15:34:54;47.70;;;3.60;;
11092;SDS011;5600;50.864;6.102;2023-03-19T15:37:56;52.13;;;4.07;;
11092;SDS011;5600;50.864;6.102;2023-03-19T15:41:00;55.70;;;4.30;;
11092;SDS011;5600;50.864;6.102;2023-03-19T15:44:04;54.93;;;4.57;;
11092;SDS011;5600;50.864;6.102;2023-03-19T15:47:11;63.17;;;4.40;;
11092;SDS011;5600;50.864;6.102;2023-03-19T15:50:17;60.23;;;4.40;;
11092;SDS011;5600;50.864;6.102;2023-03-19T15:53:23;50.87;;;3.93;;
11092;SDS011;5600;50.864;6.102;2023-03-19T15:56:27;60.07;;;4.70;;
11092;SDS011;5600;50.864;6.102;2023-03-19T15:59:31;55.97;;;4.53;;
11092;SDS011;5600;50.864;6.102;2023-03-19T16:02:32;65.43;;;4.73;;
11092;SDS011;5600;50.864;6.102;2023-03-19T16:05:34;60.03;;;4.57;;
11092;SDS011;5600;50.864;6.102;2023-03-19T16:08:35;127.43;;;7.27;;
11092;SDS011;5600;50.864;6.102;2023-03-19T16:11:48;73.57;;;5.10;;
11092;SDS011;5600;50.864;6.102;2023-03-19T16:14:51;76.93;;;5.53;;
11092;SDS011;5600;50.864;6.102;2023-03-19T16:17:52;69.27;;;5.67;;
11092;SDS011;5600;50.864;6.102;2023-03-19T16:27:36;70.13;;;5.53;;
11092;SDS011;5600;50.864;6.102;2023-03-19T16:30:43;41.57;;;5.00;;
11092;SDS011;5600;50.864;6.102;2023-03-19T16:33:46;62.37;;;5.83;;
11092;SDS011;5600;50.864;6.102;2023-03-19T16:36:50;91.60;;;6.33;;
11092;SDS011;5600;50.864;6.102;2023-03-19T16:39:52;130.83;;;7.87;;
11092;SDS011;5600;50.864;6.102;2023-03-19T16:43:05;74.87;;;5.53;;
11092;SDS011;5600;50.864;6.102;2023-03-19T16:46:12;55.80;;;4.80;;
11092;SDS011;5600;50.864;6.102;2023-03-19T16:49:16;71.97;;;5.40;;
11092;SDS011;5600;50.864;6.102;2023-03-19T16:52:21;94.90;;;6.70;;
11092;SDS011;5600;50.864;6.102;2023-03-19T16:55:25;59.13;;;5.03;;
11092;SDS011;5600;50.864;6.102;2023-03-19T16:58:34;61.63;;;4.97;;
11092;SDS011;5600;50.864;6.102;2023-03-19T17:01:36;70.80;;;5.67;;
11092;SDS011;5600;50.864;6.102;2023-03-19T17:04:38;75.57;;;6.30;;
11092;SDS011;5600;50.864;6.102;2023-03-19T17:07:39;66.00;;;5.87;;
11092;SDS011;5600;50.864;6.102;2023-03-19T17:10:47;48.13;;;5.13;;
11092;SDS011;5600;50.864;6.102;2023-03-19T17:13:50;56.57;;;5.00;;
11092;SDS011;5600;50.864;6.102;2023-03-19T17:16:52;69.27;;;5.80;;
11092;SDS011;5600;50.864;6.102;2023-03-19T17:19:54;64.90;;;5.83;;
11092;SDS011;5600;50.864;6.102;2023-03-19T17:22:55;79.43;;;6.57;;
11092;SDS011;5600;50.864;6.102;2023-03-19T17:25:57;83.07;;;6.50;;
11092;SDS011;5600;50.864;6.102;2023-03-19T17:28:58;84.43;;;6.87;;
11092;SDS011;5600;50.864;6.102;2023-03-19T17:31:59;84.33;;;7.17;;
11092;SDS011;5600;50.864;6.102;2023-03-19T17:35:01;76.57;;;6.07;;
11092;SDS011;5600;50.864;6.102;2023-03-19T17:38:02;76.07;;;5.53;;
11092;SDS011;5600;50.864;6.102;2023-03-19T17:41:11;82.00;;;5.70;;
11092;SDS011;5600;50.864;6.102;2023-03-19T17:44:14;47.83;;;4.57;;
11092;SDS011;5600;50.864;6.102;2023-03-19T17:47:15;77.00;;;5.97;;
11092;SDS011;5600;50.864;6.102;2023-03-19T17:50:19;55.90;;;4.90;;
11092;SDS011;5600;50.864;6.102;2023-03-19T17:53:22;53.00;;;5.10;;
11092;SDS011;5600;50.864;6.102;2023-03-19T17:56:24;66.03;;;5.30;;
11092;SDS011;5600;50.864;6.102;2023-03-19T17:59:25;54.03;;;4.40;;
11092;SDS011;5600;50.864;6.102;2023-03-19T18:02:27;54.70;;;4.33;;
11092;SDS011;5600;50.864;6.102;2023-03-19T18:05:29;55.90;;;4.70;;
11092;SDS011;5600;50.864;6.102;2023-03-19T18:08:30;65.23;;;5.17;;
11092;SDS011;5600;50.864;6.102;2023-03-19T18:11:31;74.27;;;5.87;;
11092;SDS011;5600;50.864;6.102;2023-03-19T18:14:32;80.57;;;6.23;;
11092;SDS011;5600;50.864;6.102;2023-03-19T18:17:33;66.37;;;6.83;;
11092;SDS011;5600;50.864;6.102;2023-03-19T18:20:35;48.60;;;5.33;;
11092;SDS011;5600;50.864;6.102;2023-03-19T18:23:38;44.83;;;6.53;;
11092;SDS011;5600;50.864;6.102;2023-03-19T18:26:38;64.73;;;6.13;;
11092;SDS011;5600;50.864;6.102;2023-03-19T18:29:39;58.90;;;5.80;;
11092;SDS011;5600;50.864;6.102;2023-03-19T18:32:40;60.43;;;5.53;;
11092;SDS011;5600;50.864;6.102;2023-03-19T18:35:44;45.23;;;6.43;;
11092;SDS011;5600;50.864;6.102;2023-03-19T18:38:46;110.10;;;9.00;;
11092;SDS011;5600;50.864;6.102;2023-03-19T18:41:46;95.70;;;8.30;;
11092;SDS011;5600;50.864;6.102;2023-03-19T18:44:48;64.07;;;6.47;;
11092;SDS011;5600;50.864;6.102;2023-03-19T18:47:48;94.30;;;7.77;;
11092;SDS011;5600;50.864;6.102;2023-03-19T18:50:50;81.60;;;6.93;;
11092;SDS011;5600;50.864;6.102;2023-03-19T18:53:51;612.13;;;36.43;;
11092;SDS011;5600;50.864;6.102;2023-03-19T18:56:53;88.27;;;7.60;;
11092;SDS011;5600;50.864;6.102;2023-03-19T18:59:55;79.17;;;7.33;;
11092;SDS011;5600;50.864;6.102;2023-03-19T19:02:56;79.10;;;9.37;;
11092;SDS011;5600;50.864;6.102;2023-03-19T19:05:57;80.83;;;8.70;;
11092;SDS011;5600;50.864;6.102;2023-03-19T19:08:59;92.93;;;13.13;;
11092;SDS011;5600;50.864;6.102;2023-03-19T19:12:02;109.67;;;15.33;;
11092;SDS011;5600;50.864;6.102;2023-03-19T19:15:03;81.00;;;13.67;;
11092;SDS011;5600;50.864;6.102;2023-03-19T19:18:14;80.27;;;15.23;;
11092;SDS011;5600;50.864;6.102;2023-03-19T19:21:17;78.20;;;15.23;;
11092;SDS011;5600;50.864;6.102;2023-03-19T19:24:19;59.50;;;15.53;;
11092;SDS011;5600;50.864;6.102;2023-03-19T19:27:21;69.17;;;16.77;;
11092;SDS011;5600;50.864;6.102;2023-03-19T19:30:24;60.83;;;15.63;;
11092;SDS011;5600;50.864;6.102;2023-03-19T19:33:31;70.93;;;17.57;;
11092;SDS011;5600;50.864;6.102;2023-03-19T19:36:34;94.53;;;18.60;;
11092;SDS011;5600;50.864;6.102;2023-03-19T19:39:35;82.17;;;18.90;;
11092;SDS011;5600;50.864;6.102;2023-03-19T19:42:36;80.33;;;18.73;;
11092;SDS011;5600;50.864;6.102;2023-03-19T19:45:37;74.57;;;17.13;;
11092;SDS011;5600;50.864;6.102;2023-03-19T19:48:40;121.83;;;18.40;;
11092;SDS011;5600;50.864;6.102;2023-03-19T19:51:42;60.03;;;14.77;;
11092;SDS011;5600;50.864;6.102;2023-03-19T19:54:43;78.07;;;14.97;;
11092;SDS011;5600;50.864;6.102;2023-03-19T19:57:44;81.67;;;15.73;;
11092;SDS011;5600;50.864;6.102;2023-03-19T20:00:45;105.50;;;16.97;;
11092;SDS011;5600;50.864;6.102;2023-03-19T20:03:47;96.93;;;17.13;;
11092;SDS011;5600;50.864;6.102;2023-03-19T20:06:49;89.77;;;16.37;;
11092;SDS011;5600;50.864;6.102;2023-03-19T20:09:50;87.47;;;15.30;;
11092;SDS011;5600;50.864;6.102;2023-03-19T20:12:51;94.30;;;15.93;;
11092;SDS011;5600;50.864;6.102;2023-03-19T20:15:55;79.77;;;13.83;;
11092;SDS011;5600;50.864;6.102;2023-03-19T20:18:57;89.70;;;15.07;;
11092;SDS011;5600;50.864;6.102;2023-03-19T20:21:58;134.30;;;16.83;;
11092;SDS011;5600;50.864;6.102;2023-03-19T20:24:59;80.03;;;15.10;;
11092;SDS011;5600;50.864;6.102;2023-03-19T20:28:01;95.57;;;16.53;;